GLO1782 SBEG-SBSN
Flight info
| Callsign | GLO1782 |
|---|---|
| Flight time | 0h 58m |
| Altitude | 35000 |
| Route | XOLOK UZ81 TOBUX DCT STM DCT |
| Aircraft | B738/M-SDFGIKLORWXY/LB1 |
Departure
| Time | 2026-04-22 00:36 |
|---|---|
| Airport | Eduardo Gomes International Airport (SBEG) |
Arrival
| Time | 2026-04-22 01:35 |
|---|---|
| Airport | Santarém - Maestro Wilson Fonseca International Airport (SBSN) |
| Time | Latitude | Longitude | Altitude | Speed | Heading |
|---|---|---|---|---|---|
| 2026-04-22 00:04 | -3.03272 | -60.04581 | 267 ft | 0 kts | 357° |
| 2026-04-22 00:19 | -3.03273 | -60.04581 | 248 ft | 1 kts | 357° |
| 2026-04-22 00:19 | -3.03289 | -60.04581 | 267 ft | 3 kts | 0° |
| 2026-04-22 00:19 | -3.03310 | -60.04581 | 267 ft | 3 kts | 6° |
| 2026-04-22 00:19 | -3.03330 | -60.04585 | 267 ft | 3 kts | 18° |
| 2026-04-22 00:20 | -3.03347 | -60.04593 | 267 ft | 3 kts | 43° |
| 2026-04-22 00:20 | -3.03356 | -60.04604 | 267 ft | 2 kts | 86° |
| 2026-04-22 00:20 | -3.03356 | -60.04607 | 267 ft | 1 kts | 90° |
| 2026-04-22 00:23 | -3.03356 | -60.04598 | 267 ft | 3 kts | 90° |
| 2026-04-22 00:23 | -3.03356 | -60.04573 | 267 ft | 4 kts | 90° |
| 2026-04-22 00:23 | -3.03353 | -60.04546 | 267 ft | 4 kts | 85° |
| 2026-04-22 00:24 | -3.03351 | -60.04521 | 267 ft | 4 kts | 85° |
| 2026-04-22 00:24 | -3.03347 | -60.04495 | 267 ft | 4 kts | 80° |
| 2026-04-22 00:24 | -3.03343 | -60.04470 | 267 ft | 4 kts | 80° |
| 2026-04-22 00:24 | -3.03337 | -60.04446 | 267 ft | 4 kts | 76° |
| 2026-04-22 00:25 | -3.03331 | -60.04422 | 267 ft | 3 kts | 86° |
| 2026-04-22 00:25 | -3.03339 | -60.04399 | 267 ft | 3 kts | 119° |
| 2026-04-22 00:25 | -3.03358 | -60.04385 | 267 ft | 4 kts | 162° |
| 2026-04-22 00:25 | -3.03383 | -60.04378 | 267 ft | 4 kts | 165° |
| 2026-04-22 00:26 | -3.03408 | -60.04372 | 267 ft | 4 kts | 165° |
| 2026-04-22 00:26 | -3.03432 | -60.04366 | 267 ft | 4 kts | 165° |
| 2026-04-22 00:26 | -3.03455 | -60.04359 | 267 ft | 3 kts | 156° |
| 2026-04-22 00:26 | -3.03473 | -60.04343 | 267 ft | 4 kts | 138° |
| 2026-04-22 00:27 | -3.03491 | -60.04326 | 267 ft | 3 kts | 138° |
| 2026-04-22 00:27 | -3.03509 | -60.04311 | 267 ft | 3 kts | 138° |
| 2026-04-22 00:27 | -3.03526 | -60.04296 | 267 ft | 3 kts | 138° |
| 2026-04-22 00:27 | -3.03543 | -60.04281 | 267 ft | 3 kts | 138° |
| 2026-04-22 00:28 | -3.03557 | -60.04265 | 267 ft | 3 kts | 117° |
| 2026-04-22 00:28 | -3.03567 | -60.04244 | 267 ft | 3 kts | 115° |
| 2026-04-22 00:28 | -3.03576 | -60.04224 | 267 ft | 3 kts | 115° |
| 2026-04-22 00:28 | -3.03585 | -60.04204 | 267 ft | 3 kts | 115° |
| 2026-04-22 00:29 | -3.03594 | -60.04184 | 267 ft | 3 kts | 115° |
| 2026-04-22 00:29 | -3.03603 | -60.04166 | 267 ft | 3 kts | 115° |
| 2026-04-22 00:29 | -3.03607 | -60.04146 | 267 ft | 3 kts | 97° |
| 2026-04-22 00:29 | -3.03609 | -60.04126 | 267 ft | 3 kts | 97° |
| 2026-04-22 00:30 | -3.03612 | -60.04106 | 267 ft | 3 kts | 97° |
| 2026-04-22 00:30 | -3.03617 | -60.04087 | 267 ft | 3 kts | 109° |
| 2026-04-22 00:30 | -3.03623 | -60.04067 | 267 ft | 3 kts | 105° |
| 2026-04-22 00:30 | -3.03632 | -60.04035 | 267 ft | 0 kts | 105° |
| 2026-04-22 00:31 | -3.03641 | -60.04001 | 267 ft | 11 kts | 105° |
| 2026-04-22 00:31 | -3.03661 | -60.03929 | 267 ft | 11 kts | 105° |
| 2026-04-22 00:31 | -3.03667 | -60.03905 | 268 ft | 0 kts | 105° |
| 2026-04-22 00:34 | -3.03676 | -60.03873 | 268 ft | 8 kts | 105° |
| 2026-04-22 00:34 | -3.03691 | -60.03822 | 268 ft | 7 kts | 115° |
| 2026-04-22 00:34 | -3.03725 | -60.03784 | 268 ft | 7 kts | 144° |
| 2026-04-22 00:35 | -3.03771 | -60.03766 | 268 ft | 7 kts | 180° |
| 2026-04-22 00:35 | -3.03820 | -60.03766 | 268 ft | 7 kts | 180° |
| 2026-04-22 00:35 | -3.03863 | -60.03782 | 267 ft | 5 kts | 232° |
| 2026-04-22 00:35 | -3.03865 | -60.03815 | 267 ft | 5 kts | 271° |
| 2026-04-22 00:36 | -3.03862 | -60.04076 | 268 ft | 83 kts | 269° |
| 2026-04-22 00:36 | -3.03860 | -60.04961 | 269 ft | 167 kts | 270° |
| 2026-04-22 00:36 | -3.03849 | -60.06290 | 799 ft | 202 kts | 270° |
| 2026-04-22 00:36 | -3.03829 | -60.07688 | 1927 ft | 201 kts | 271° |
| 2026-04-22 00:37 | -3.03602 | -60.09081 | 2815 ft | 205 kts | 301° |
| 2026-04-22 00:37 | -3.02553 | -60.09988 | 3716 ft | 203 kts | 344° |
| 2026-04-22 00:37 | -3.01170 | -60.10179 | 4693 ft | 200 kts | 358° |
| 2026-04-22 00:37 | -2.99778 | -60.10262 | 5594 ft | 201 kts | 359° |
| 2026-04-22 00:38 | -2.98393 | -60.10338 | 6486 ft | 201 kts | 359° |
| 2026-04-22 00:38 | -2.96998 | -60.10417 | 7302 ft | 202 kts | 358° |
| 2026-04-22 00:38 | -2.95580 | -60.10500 | 8056 ft | 206 kts | 358° |
| 2026-04-22 00:38 | -2.94127 | -60.10588 | 8744 ft | 211 kts | 358° |
| 2026-04-22 00:39 | -2.92639 | -60.10681 | 9385 ft | 217 kts | 358° |
| 2026-04-22 00:39 | -2.91114 | -60.10777 | 9980 ft | 225 kts | 357° |
| 2026-04-22 00:39 | -2.89460 | -60.10882 | 10218 ft | 253 kts | 357° |
| 2026-04-22 00:39 | -2.87605 | -60.10862 | 10421 ft | 280 kts | 14° |
| 2026-04-22 00:40 | -2.85847 | -60.09928 | 10748 ft | 297 kts | 47° |
| 2026-04-22 00:40 | -2.84844 | -60.08137 | 11412 ft | 300 kts | 78° |
| 2026-04-22 00:40 | -2.84501 | -60.06057 | 11931 ft | 314 kts | 84° |
| 2026-04-22 00:40 | -2.84258 | -60.03799 | 12299 ft | 332 kts | 85° |
| 2026-04-22 00:41 | -2.84032 | -60.01479 | 12983 ft | 337 kts | 85° |
| 2026-04-22 00:41 | -2.83795 | -59.99140 | 13772 ft | 340 kts | 85° |
| 2026-04-22 00:41 | -2.83544 | -59.96807 | 14440 ft | 343 kts | 84° |
| 2026-04-22 00:41 | -2.83362 | -59.95200 | 14886 ft | 345 kts | 84° |
| 2026-04-22 00:42 | -2.82988 | -59.92023 | 15760 ft | 350 kts | 83° |
| 2026-04-22 00:42 | -2.82693 | -59.89594 | 16436 ft | 353 kts | 83° |
| 2026-04-22 00:42 | -2.82391 | -59.87146 | 17088 ft | 356 kts | 83° |
| 2026-04-22 00:42 | -2.82182 | -59.85477 | 17529 ft | 358 kts | 82° |
| 2026-04-22 00:43 | -2.81875 | -59.83022 | 18175 ft | 361 kts | 82° |
| 2026-04-22 00:43 | -2.81560 | -59.80519 | 18731 ft | 365 kts | 82° |
| 2026-04-22 00:43 | -2.81241 | -59.77992 | 19266 ft | 368 kts | 82° |
| 2026-04-22 00:43 | -2.80919 | -59.75436 | 19799 ft | 371 kts | 82° |
| 2026-04-22 00:44 | -2.80594 | -59.72865 | 20326 ft | 375 kts | 82° |
| 2026-04-22 00:44 | -2.80267 | -59.70272 | 20844 ft | 378 kts | 82° |
| 2026-04-22 00:44 | -2.79935 | -59.67640 | 21369 ft | 382 kts | 82° |
| 2026-04-22 00:44 | -2.79602 | -59.65008 | 21883 ft | 385 kts | 83° |
| 2026-04-22 00:45 | -2.79265 | -59.62338 | 22380 ft | 389 kts | 83° |
| 2026-04-22 00:45 | -2.78924 | -59.59640 | 22881 ft | 392 kts | 83° |
| 2026-04-22 00:45 | -2.78581 | -59.56928 | 23366 ft | 395 kts | 83° |
| 2026-04-22 00:45 | -2.78235 | -59.54184 | 23793 ft | 398 kts | 83° |
| 2026-04-22 00:46 | -2.77886 | -59.51427 | 24231 ft | 400 kts | 83° |
| 2026-04-22 00:46 | -2.77538 | -59.48675 | 24696 ft | 401 kts | 83° |
| 2026-04-22 00:46 | -2.77186 | -59.45892 | 25136 ft | 403 kts | 83° |
| 2026-04-22 00:46 | -2.76838 | -59.43138 | 25563 ft | 405 kts | 83° |
| 2026-04-22 00:47 | -2.76480 | -59.40311 | 26004 ft | 406 kts | 83° |
| 2026-04-22 00:47 | -2.76124 | -59.37498 | 26429 ft | 408 kts | 83° |
| 2026-04-22 00:47 | -2.75770 | -59.34702 | 26835 ft | 410 kts | 83° |
| 2026-04-22 00:47 | -2.75411 | -59.31864 | 27242 ft | 412 kts | 83° |
| 2026-04-22 00:48 | -2.75046 | -59.28980 | 27679 ft | 414 kts | 83° |
| 2026-04-22 00:48 | -2.74688 | -59.26157 | 28089 ft | 415 kts | 83° |
| 2026-04-22 00:48 | -2.74324 | -59.23280 | 28489 ft | 417 kts | 83° |
| 2026-04-22 00:48 | -2.73958 | -59.20389 | 28872 ft | 419 kts | 83° |
| 2026-04-22 00:49 | -2.73590 | -59.17491 | 29250 ft | 421 kts | 83° |
| 2026-04-22 00:49 | -2.73221 | -59.14576 | 29621 ft | 423 kts | 83° |
| 2026-04-22 00:49 | -2.72851 | -59.11653 | 29984 ft | 425 kts | 83° |
| 2026-04-22 00:49 | -2.72483 | -59.08751 | 30298 ft | 426 kts | 83° |
| 2026-04-22 00:50 | -2.72104 | -59.05769 | 30601 ft | 428 kts | 83° |
| 2026-04-22 00:50 | -2.71734 | -59.02845 | 30904 ft | 430 kts | 83° |
| 2026-04-22 00:50 | -2.71357 | -58.99880 | 31192 ft | 431 kts | 83° |
| 2026-04-22 00:50 | -2.70978 | -58.96890 | 31474 ft | 433 kts | 83° |
| 2026-04-22 00:51 | -2.70597 | -58.93885 | 31744 ft | 435 kts | 83° |
| 2026-04-22 00:51 | -2.70215 | -58.90879 | 32082 ft | 435 kts | 83° |
| 2026-04-22 00:51 | -2.69834 | -58.87880 | 32500 ft | 433 kts | 83° |
| 2026-04-22 00:51 | -2.69455 | -58.84898 | 32941 ft | 431 kts | 83° |
| 2026-04-22 00:52 | -2.69078 | -58.81927 | 33327 ft | 430 kts | 83° |
| 2026-04-22 00:52 | -2.68701 | -58.78961 | 33684 ft | 430 kts | 83° |
| 2026-04-22 00:52 | -2.68324 | -58.75994 | 34032 ft | 429 kts | 83° |
| 2026-04-22 00:52 | -2.67948 | -58.73039 | 34374 ft | 428 kts | 84° |
| 2026-04-22 00:53 | -2.67574 | -58.70091 | 34741 ft | 425 kts | 84° |
| 2026-04-22 00:53 | -2.67201 | -58.67158 | 35078 ft | 424 kts | 84° |
| 2026-04-22 00:53 | -2.66834 | -58.64273 | 35396 ft | 423 kts | 84° |
| 2026-04-22 00:53 | -2.66459 | -58.61324 | 35727 ft | 421 kts | 84° |
| 2026-04-22 00:54 | -2.66094 | -58.58453 | 36051 ft | 420 kts | 84° |
| 2026-04-22 00:54 | -2.65727 | -58.55564 | 36358 ft | 419 kts | 84° |
| 2026-04-22 00:54 | -2.65360 | -58.52677 | 36662 ft | 418 kts | 84° |
| 2026-04-22 00:54 | -2.65117 | -58.49786 | 36955 ft | 416 kts | 88° |
| 2026-04-22 00:55 | -2.65038 | -58.46893 | 37255 ft | 415 kts | 90° |
| 2026-04-22 00:55 | -2.65025 | -58.44006 | 37541 ft | 414 kts | 91° |
| 2026-04-22 00:55 | -2.65020 | -58.38253 | 38089 ft | 412 kts | 90° |
| 2026-04-22 00:56 | -2.65001 | -58.35386 | 38324 ft | 412 kts | 90° |
| 2026-04-22 00:56 | -2.64972 | -58.32553 | 38561 ft | 411 kts | 90° |
| 2026-04-22 00:56 | -2.64933 | -58.29685 | 38784 ft | 410 kts | 90° |
| 2026-04-22 00:56 | -2.64890 | -58.26834 | 38919 ft | 412 kts | 90° |
| 2026-04-22 00:57 | -2.64796 | -58.21077 | 38924 ft | 414 kts | 90° |
| 2026-04-22 00:57 | -2.64699 | -58.15350 | 38917 ft | 410 kts | 90° |
| 2026-04-22 00:58 | -2.64604 | -58.09701 | 38923 ft | 407 kts | 90° |
| 2026-04-22 00:58 | -2.64509 | -58.04026 | 38925 ft | 405 kts | 90° |
| 2026-04-22 00:59 | -2.64415 | -57.98423 | 38925 ft | 404 kts | 90° |
| 2026-04-22 00:59 | -2.64321 | -57.92805 | 38946 ft | 405 kts | 90° |
| 2026-04-22 01:00 | -2.64226 | -57.87168 | 38930 ft | 407 kts | 90° |
| 2026-04-22 01:00 | -2.64130 | -57.81484 | 38942 ft | 409 kts | 90° |
| 2026-04-22 01:01 | -2.64033 | -57.75777 | 38945 ft | 412 kts | 90° |
| 2026-04-22 01:01 | -2.63935 | -57.70026 | 38941 ft | 414 kts | 90° |
| 2026-04-22 01:02 | -2.63838 | -57.64291 | 38935 ft | 416 kts | 90° |
| 2026-04-22 01:02 | -2.63738 | -57.58479 | 38933 ft | 418 kts | 90° |
| 2026-04-22 01:03 | -2.63638 | -57.52673 | 38934 ft | 418 kts | 90° |
| 2026-04-22 01:03 | -2.63538 | -57.46858 | 38933 ft | 417 kts | 90° |
| 2026-04-22 01:04 | -2.63439 | -57.41094 | 38928 ft | 416 kts | 90° |
| 2026-04-22 01:04 | -2.63339 | -57.35327 | 38933 ft | 414 kts | 90° |
| 2026-04-22 01:05 | -2.63239 | -57.29558 | 38936 ft | 412 kts | 90° |
| 2026-04-22 01:05 | -2.63140 | -57.23871 | 38933 ft | 410 kts | 90° |
| 2026-04-22 01:06 | -2.63041 | -57.18173 | 38937 ft | 408 kts | 90° |
| 2026-04-22 01:06 | -2.62942 | -57.12497 | 38936 ft | 407 kts | 90° |
| 2026-04-22 01:07 | -2.62843 | -57.06834 | 38938 ft | 406 kts | 90° |
| 2026-04-22 01:07 | -2.62744 | -57.01188 | 38472 ft | 414 kts | 90° |
| 2026-04-22 01:08 | -2.62693 | -56.98302 | 37905 ft | 413 kts | 90° |
| 2026-04-22 01:08 | -2.62643 | -56.95437 | 37353 ft | 413 kts | 90° |
| 2026-04-22 01:08 | -2.62592 | -56.92552 | 36742 ft | 414 kts | 90° |
| 2026-04-22 01:08 | -2.62541 | -56.89669 | 36157 ft | 416 kts | 90° |
| 2026-04-22 01:09 | -2.62489 | -56.86764 | 35520 ft | 419 kts | 90° |
| 2026-04-22 01:09 | -2.62438 | -56.83835 | 34878 ft | 422 kts | 90° |
| 2026-04-22 01:09 | -2.62386 | -56.80912 | 34375 ft | 421 kts | 90° |
| 2026-04-22 01:09 | -2.62333 | -56.77975 | 33859 ft | 421 kts | 90° |
| 2026-04-22 01:10 | -2.62281 | -56.75056 | 33301 ft | 420 kts | 90° |
| 2026-04-22 01:10 | -2.62230 | -56.72160 | 32802 ft | 419 kts | 90° |
| 2026-04-22 01:10 | -2.62178 | -56.69274 | 32305 ft | 417 kts | 90° |
| 2026-04-22 01:10 | -2.62126 | -56.66371 | 31813 ft | 416 kts | 90° |
| 2026-04-22 01:11 | -2.62075 | -56.63479 | 31327 ft | 414 kts | 90° |
| 2026-04-22 01:11 | -2.62023 | -56.60606 | 30823 ft | 414 kts | 90° |
| 2026-04-22 01:11 | -2.61972 | -56.57718 | 30333 ft | 413 kts | 90° |
| 2026-04-22 01:11 | -2.61920 | -56.54850 | 29805 ft | 413 kts | 90° |
| 2026-04-22 01:12 | -2.61869 | -56.52008 | 29262 ft | 411 kts | 90° |
| 2026-04-22 01:12 | -2.61818 | -56.49155 | 28739 ft | 409 kts | 90° |
| 2026-04-22 01:12 | -2.61767 | -56.46320 | 28221 ft | 407 kts | 90° |
| 2026-04-22 01:12 | -2.61716 | -56.43497 | 27719 ft | 405 kts | 89° |
| 2026-04-22 01:13 | -2.61567 | -56.40662 | 27434 ft | 398 kts | 85° |
| 2026-04-22 01:13 | -2.61266 | -56.37993 | 27352 ft | 385 kts | 83° |
| 2026-04-22 01:13 | -2.60925 | -56.35363 | 27061 ft | 380 kts | 83° |
| 2026-04-22 01:13 | -2.60594 | -56.32738 | 26609 ft | 379 kts | 83° |
| 2026-04-22 01:14 | -2.60285 | -56.30122 | 26145 ft | 379 kts | 84° |
| 2026-04-22 01:14 | -2.59986 | -56.27496 | 25743 ft | 377 kts | 84° |
| 2026-04-22 01:14 | -2.59693 | -56.24908 | 25343 ft | 372 kts | 83° |
| 2026-04-22 01:14 | -2.59401 | -56.22353 | 24743 ft | 369 kts | 83° |
| 2026-04-22 01:15 | -2.59105 | -56.19783 | 23870 ft | 376 kts | 83° |
| 2026-04-22 01:15 | -2.58802 | -56.17162 | 22942 ft | 380 kts | 83° |
| 2026-04-22 01:15 | -2.58497 | -56.14526 | 21981 ft | 383 kts | 83° |
| 2026-04-22 01:15 | -2.58192 | -56.11882 | 21314 ft | 379 kts | 83° |
| 2026-04-22 01:16 | -2.57895 | -56.09311 | 20865 ft | 368 kts | 83° |
| 2026-04-22 01:16 | -2.57608 | -56.06824 | 20424 ft | 359 kts | 83° |
| 2026-04-22 01:16 | -2.57325 | -56.04368 | 19982 ft | 351 kts | 83° |
| 2026-04-22 01:16 | -2.57050 | -56.01980 | 19562 ft | 343 kts | 83° |
| 2026-04-22 01:17 | -2.56778 | -55.99623 | 19137 ft | 337 kts | 83° |
| 2026-04-22 01:17 | -2.56511 | -55.97311 | 18716 ft | 331 kts | 83° |
| 2026-04-22 01:17 | -2.56250 | -55.95052 | 18294 ft | 326 kts | 83° |
| 2026-04-22 01:17 | -2.55992 | -55.92814 | 17838 ft | 321 kts | 83° |
| 2026-04-22 01:18 | -2.55738 | -55.90612 | 17422 ft | 315 kts | 83° |
| 2026-04-22 01:18 | -2.55490 | -55.88468 | 17025 ft | 311 kts | 83° |
| 2026-04-22 01:18 | -2.55242 | -55.86321 | 16637 ft | 309 kts | 83° |
| 2026-04-22 01:18 | -2.54995 | -55.84183 | 16256 ft | 312 kts | 83° |
| 2026-04-22 01:19 | -2.54741 | -55.81981 | 15871 ft | 323 kts | 83° |
| 2026-04-22 01:19 | -2.54481 | -55.79733 | 15433 ft | 324 kts | 83° |
| 2026-04-22 01:19 | -2.54225 | -55.77515 | 15025 ft | 318 kts | 83° |
| 2026-04-22 01:19 | -2.53977 | -55.75370 | 14627 ft | 311 kts | 83° |
| 2026-04-22 01:20 | -2.53730 | -55.73233 | 14222 ft | 306 kts | 83° |
| 2026-04-22 01:20 | -2.53487 | -55.71135 | 13843 ft | 301 kts | 84° |
| 2026-04-22 01:20 | -2.53248 | -55.69068 | 13459 ft | 298 kts | 84° |
| 2026-04-22 01:20 | -2.53008 | -55.66995 | 13058 ft | 300 kts | 84° |
| 2026-04-22 01:21 | -2.52769 | -55.64921 | 12670 ft | 301 kts | 84° |
| 2026-04-22 01:21 | -2.52528 | -55.62840 | 12266 ft | 303 kts | 84° |
| 2026-04-22 01:21 | -2.52288 | -55.60759 | 11886 ft | 304 kts | 84° |
| 2026-04-22 01:21 | -2.52045 | -55.58662 | 11492 ft | 305 kts | 84° |
| 2026-04-22 01:22 | -2.51801 | -55.56550 | 11097 ft | 307 kts | 84° |
| 2026-04-22 01:22 | -2.51555 | -55.54425 | 10685 ft | 308 kts | 84° |
| 2026-04-22 01:22 | -2.51307 | -55.52285 | 10280 ft | 310 kts | 84° |
| 2026-04-22 01:22 | -2.51062 | -55.50170 | 10106 ft | 302 kts | 84° |
| 2026-04-22 01:23 | -2.50823 | -55.48102 | 9904 ft | 297 kts | 84° |
| 2026-04-22 01:23 | -2.50609 | -55.46098 | 9867 ft | 284 kts | 85° |
| 2026-04-22 01:23 | -2.50409 | -55.44082 | 9253 ft | 294 kts | 85° |
| 2026-04-22 01:23 | -2.50211 | -55.42047 | 8813 ft | 296 kts | 85° |
| 2026-04-22 01:24 | -2.50011 | -55.39995 | 8450 ft | 296 kts | 85° |
| 2026-04-22 01:24 | -2.49811 | -55.37942 | 8087 ft | 295 kts | 85° |
| 2026-04-22 01:24 | -2.49611 | -55.35905 | 7731 ft | 295 kts | 85° |
| 2026-04-22 01:24 | -2.49409 | -55.33860 | 7374 ft | 295 kts | 85° |
| 2026-04-22 01:25 | -2.49208 | -55.31820 | 7015 ft | 294 kts | 85° |
| 2026-04-22 01:25 | -2.49010 | -55.29811 | 6662 ft | 294 kts | 85° |
| 2026-04-22 01:25 | -2.48806 | -55.27751 | 6271 ft | 294 kts | 85° |
| 2026-04-22 01:25 | -2.48607 | -55.25735 | 5908 ft | 294 kts | 84° |
| 2026-04-22 01:26 | -2.48406 | -55.23705 | 5540 ft | 293 kts | 84° |
| 2026-04-22 01:26 | -2.48206 | -55.21685 | 5183 ft | 292 kts | 84° |
| 2026-04-22 01:26 | -2.48006 | -55.19667 | 4826 ft | 291 kts | 84° |
| 2026-04-22 01:26 | -2.47807 | -55.17654 | 4456 ft | 290 kts | 84° |
| 2026-04-22 01:27 | -2.47608 | -55.15650 | 4096 ft | 288 kts | 84° |
| 2026-04-22 01:27 | -2.47411 | -55.13661 | 3728 ft | 287 kts | 84° |
| 2026-04-22 01:27 | -2.47215 | -55.11676 | 3372 ft | 286 kts | 84° |
| 2026-04-22 01:27 | -2.47020 | -55.09715 | 3180 ft | 278 kts | 84° |
| 2026-04-22 01:28 | -2.46841 | -55.07904 | 3039 ft | 270 kts | 84° |
| 2026-04-22 01:28 | -2.46641 | -55.06057 | 2877 ft | 263 kts | 82° |
| 2026-04-22 01:28 | -2.46358 | -55.04286 | 2722 ft | 250 kts | 80° |
| 2026-04-22 01:28 | -2.46058 | -55.02624 | 2555 ft | 237 kts | 79° |
| 2026-04-22 01:29 | -2.45782 | -55.01074 | 2508 ft | 219 kts | 80° |
| 2026-04-22 01:29 | -2.45545 | -54.99650 | 2498 ft | 196 kts | 81° |
| 2026-04-22 01:29 | -2.45340 | -54.98392 | 2474 ft | 170 kts | 81° |
| 2026-04-22 01:29 | -2.45156 | -54.97255 | 2510 ft | 165 kts | 81° |
| 2026-04-22 01:30 | -2.44980 | -54.96169 | 2530 ft | 150 kts | 81° |
| 2026-04-22 01:30 | -2.44820 | -54.95186 | 2481 ft | 137 kts | 81° |
| 2026-04-22 01:30 | -2.44669 | -54.94254 | 2489 ft | 134 kts | 81° |
| 2026-04-22 01:30 | -2.44570 | -54.93647 | 2510 ft | 133 kts | 81° |
| 2026-04-22 01:31 | -2.44417 | -54.92704 | 2503 ft | 140 kts | 81° |
| 2026-04-22 01:31 | -2.44261 | -54.91741 | 2421 ft | 141 kts | 81° |
| 2026-04-22 01:31 | -2.44104 | -54.90773 | 2241 ft | 141 kts | 81° |
| 2026-04-22 01:31 | -2.43948 | -54.89812 | 2054 ft | 139 kts | 81° |
| 2026-04-22 01:32 | -2.43792 | -54.88853 | 1871 ft | 140 kts | 81° |
| 2026-04-22 01:32 | -2.43635 | -54.87887 | 1680 ft | 141 kts | 81° |
| 2026-04-22 01:32 | -2.43478 | -54.86920 | 1488 ft | 140 kts | 81° |
| 2026-04-22 01:32 | -2.43323 | -54.85964 | 1310 ft | 140 kts | 81° |
| 2026-04-22 01:33 | -2.43167 | -54.84999 | 1119 ft | 140 kts | 81° |
| 2026-04-22 01:33 | -2.43013 | -54.84053 | 942 ft | 138 kts | 81° |
| 2026-04-22 01:33 | -2.42858 | -54.83100 | 775 ft | 139 kts | 82° |
| 2026-04-22 01:33 | -2.42702 | -54.82133 | 588 ft | 142 kts | 82° |
| 2026-04-22 01:34 | -2.42554 | -54.81151 | 425 ft | 142 kts | 83° |
| 2026-04-22 01:34 | -2.42384 | -54.80179 | 250 ft | 143 kts | 81° |
| 2026-04-22 01:34 | -2.42231 | -54.79250 | 204 ft | 119 kts | 84° |
| 2026-04-22 01:34 | -2.42135 | -54.78640 | 210 ft | 64 kts | 81° |
| 2026-04-22 01:35 | -2.42087 | -54.78355 | 206 ft | 21 kts | 81° |
| 2026-04-22 01:35 | -2.42087 | -54.78239 | 211 ft | 11 kts | 130° |
| 2026-04-22 01:35 | -2.42130 | -54.78235 | 205 ft | 6 kts | 212° |
| 2026-04-22 01:35 | -2.42158 | -54.78251 | 206 ft | 3 kts | 208° |
| 2026-04-22 01:36 | -2.42178 | -54.78262 | 209 ft | 3 kts | 208° |
| 2026-04-22 01:36 | -2.42199 | -54.78273 | 206 ft | 3 kts | 208° |
| 2026-04-22 01:36 | -2.42219 | -54.78282 | 209 ft | 3 kts | 204° |
| 2026-04-22 01:36 | -2.42240 | -54.78292 | 208 ft | 3 kts | 205° |
| 2026-04-22 01:37 | -2.42260 | -54.78301 | 207 ft | 3 kts | 205° |
| 2026-04-22 01:37 | -2.42279 | -54.78310 | 205 ft | 2 kts | 204° |
| 2026-04-22 01:39 | -2.42294 | -54.78317 | 211 ft | 5 kts | 206° |
| 2026-04-22 01:39 | -2.42317 | -54.78342 | 205 ft | 5 kts | 219° |
| 2026-04-22 01:40 | -2.42349 | -54.78356 | 213 ft | 5 kts | 202° |
| 2026-04-22 01:40 | -2.42351 | -54.78357 | 212 ft | 0 kts | 202° |